首页
METAR-TAF:

METAR-TAF

机场 :

卡尔斯巴德, 新墨西哥州, 美国

纬度: 32-20-15N, 经度: 104-15-48W, 海拔: 1004米

当前天气观测

该预报发布于1小时和9分钟前的22:53 UTC
风速9节,风向东转东南
温度 37°C
湿度 16%
气压 1015 hPa
能見度: 16.1公里
天空无云

METAR: KCNM 152253Z AUTO 11009KT 10SM CLR 37/07 A2996 RMK AO2 SLP082 T03720067

时间: 18:02 (00:02 UTC)

预报

该预报发布于42分钟前的23:20 UTC
预报有效从16日的 00点(UTC)到 16日的 24点(UTC)
风速9节,风向东南
能見度: 10公里
散云层高于10000英尺

TAF: KCNM 152320Z 1600/1624 13009KT P6SM SCT100

超过4000个机场的气象观测和天气预报(METAR&TAF报告)。

可查询的气象台以黄色和红色小点在地图上表示。

将鼠标移到小点上方,可查看气象台名称。

然后点击查看天气观测和预报。

如需切换地图:点击带黑十字的绿色按钮放大地图;点击带横线的绿色按钮缩小地图;或者点击绿色箭头查看邻近地区的地图。


METAR-TAF: